createdAt,value
2024-01-11T00:03:16.011Z,101091.40
2024-01-11T00:07:06.594Z,101087.80
2024-01-11T00:10:57.410Z,101083.00
2024-01-11T00:14:47.691Z,101080.20
2024-01-11T00:18:37.113Z,101072.80
2024-01-11T00:22:27.142Z,101077.00
2024-01-11T00:26:09.730Z,101076.80
2024-01-11T00:29:59.666Z,101076.60
2024-01-11T00:33:49.207Z,101080.60
2024-01-11T00:37:39.828Z,101077.60
2024-01-11T00:41:29.360Z,101068.00
2024-01-11T00:45:18.841Z,101072.20
2024-01-11T00:49:07.740Z,101064.40
2024-01-11T00:52:57.856Z,101057.20
2024-01-11T00:56:46.556Z,101053.40
2024-01-11T01:00:36.571Z,101050.20
2024-01-11T01:04:26.562Z,101044.20
2024-01-11T01:08:16.861Z,101043.00
2024-01-11T01:12:06.415Z,101034.00
2024-01-11T01:15:56.592Z,101019.00
2024-01-11T01:19:47.193Z,101016.00
2024-01-11T01:23:37.242Z,101014.80
2024-01-11T01:27:15.221Z,101007.60
2024-01-11T01:31:00.853Z,100997.80
2024-01-11T01:34:50.365Z,100994.80
2024-01-11T01:38:40.769Z,100986.40
2024-01-11T01:42:30.217Z,100985.20
2024-01-11T01:46:20.219Z,100973.40
2024-01-11T01:50:09.566Z,100971.20
2024-01-11T01:53:52.055Z,100965.60
2024-01-11T01:57:41.459Z,100955.00
2024-01-11T02:01:30.936Z,100949.80
2024-01-11T02:05:20.885Z,100943.20
2024-01-11T02:09:10.799Z,100938.40
2024-01-11T02:13:00.900Z,100933.80
2024-01-11T02:16:51.231Z,100926.60
2024-01-11T02:20:41.747Z,100914.80
2024-01-11T02:24:33.842Z,100910.40
2024-01-11T02:28:32.943Z,100906.60
2024-01-11T02:32:15.181Z,100901.40
2024-01-11T02:36:04.615Z,100896.80
2024-01-11T02:39:54.064Z,100895.60
2024-01-11T02:43:43.479Z,100897.40
2024-01-11T02:47:33.239Z,100891.00
2024-01-11T02:51:23.359Z,100885.40
2024-01-11T02:55:13.208Z,100883.40
2024-01-11T02:59:02.563Z,100873.60
2024-01-11T03:02:52.020Z,100874.20
2024-01-11T03:06:42.596Z,100874.80
2024-01-11T03:10:32.860Z,100867.80
2024-01-11T03:14:22.703Z,100865.00
2024-01-11T03:18:13.322Z,100861.20
2024-01-11T03:22:03.365Z,100854.80
2024-01-11T03:25:53.454Z,100845.60
2024-01-11T03:29:42.846Z,100835.00
2024-01-11T03:33:32.965Z,100835.40
2024-01-11T03:37:22.612Z,100827.20
2024-01-11T03:41:05.082Z,100823.20
2024-01-11T03:44:55.360Z,100823.40
2024-01-11T03:48:46.133Z,100817.60
2024-01-11T03:52:37.378Z,100812.40
2024-01-11T03:56:26.880Z,100812.40
2024-01-11T04:00:17.253Z,100812.40
2024-01-11T04:04:08.050Z,100810.00
2024-01-11T04:07:51.031Z,100805.40
2024-01-11T04:11:41.170Z,100801.40
2024-01-11T04:15:30.634Z,100798.40
2024-01-11T04:19:23.279Z,100800.80
2024-01-11T04:23:13.614Z,100798.60
2024-01-11T04:27:03.097Z,100796.00
2024-01-11T04:30:54.413Z,100797.40
2024-01-11T04:34:43.992Z,100787.80
2024-01-11T04:38:33.669Z,100787.80
2024-01-11T04:42:23.785Z,100783.20
2024-01-11T04:46:13.600Z,100783.20
2024-01-11T04:50:04.087Z,100782.60
2024-01-11T04:53:53.873Z,100782.00
2024-01-11T04:57:45.826Z,100779.80
2024-01-11T05:01:36.574Z,100778.80
2024-01-11T05:05:26.489Z,100782.20
2024-01-11T05:09:17.091Z,100783.80
2024-01-11T05:13:07.714Z,100786.20
2024-01-11T05:17:00.249Z,100790.00
2024-01-11T05:20:51.215Z,100785.00
2024-01-11T05:24:40.690Z,100784.80
2024-01-11T05:28:31.816Z,100779.80
2024-01-11T05:32:21.824Z,100780.00
2024-01-11T05:36:12.205Z,100769.60
2024-01-11T05:40:01.852Z,100761.60
2024-01-11T05:43:52.621Z,100756.40
2024-01-11T05:47:42.378Z,100749.40
2024-01-11T05:51:28.349Z,100747.40
2024-01-11T05:55:16.612Z,100750.20
2024-01-11T05:59:06.870Z,100756.40
2024-01-11T06:02:57.564Z,100760.60
2024-01-11T06:06:48.824Z,100752.80
2024-01-11T06:10:38.373Z,100747.80
2024-01-11T06:14:29.627Z,100742.40
2024-01-11T06:18:19.321Z,100746.00
2024-01-11T06:22:09.733Z,100747.40
2024-01-11T06:25:59.204Z,100748.60
2024-01-11T06:29:50.009Z,100749.00
2024-01-11T06:33:38.577Z,100745.00
2024-01-11T06:37:27.959Z,100746.40
2024-01-11T06:41:18.965Z,100742.20
2024-01-11T06:45:08.479Z,100732.80
2024-01-11T06:48:58.139Z,100726.40
2024-01-11T06:52:48.487Z,100726.80
2024-01-11T06:56:38.040Z,100725.40
2024-01-11T07:00:28.896Z,100725.00
2024-01-11T07:04:18.454Z,100720.60
2024-01-11T07:08:07.989Z,100716.60
2024-01-11T07:11:57.603Z,100720.20
2024-01-11T07:15:48.402Z,100715.40
2024-01-11T07:19:38.665Z,100714.60
2024-01-11T07:23:29.611Z,100716.00
2024-01-11T07:27:21.292Z,100714.80
2024-01-11T07:31:12.006Z,100712.60
2024-01-11T07:35:02.065Z,100705.80
2024-01-11T07:38:52.371Z,100695.40
2024-01-11T07:42:41.119Z,100697.00
2024-01-11T07:46:14.174Z,100687.00
2024-01-11T07:50:04.968Z,100682.00
2024-01-11T07:53:55.303Z,100681.80
2024-01-11T07:57:44.793Z,100675.80
2024-01-11T08:01:35.086Z,100672.40
2024-01-11T08:05:25.931Z,100666.20
2024-01-11T08:09:08.538Z,100661.60
2024-01-11T08:12:58.021Z,100655.40
2024-01-11T08:16:48.253Z,100653.20
2024-01-11T08:20:27.658Z,100652.00
2024-01-11T08:24:17.837Z,100647.00
2024-01-11T08:28:07.318Z,100655.60
2024-01-11T08:31:57.527Z,100646.60
2024-01-11T08:35:48.108Z,100647.60
2024-01-11T08:39:37.568Z,100642.80
2024-01-11T08:43:27.155Z,100634.20
2024-01-11T08:47:05.258Z,100633.40
2024-01-11T08:50:55.709Z,100642.60
2024-01-11T08:54:45.881Z,100635.20
2024-01-11T08:58:35.544Z,100633.20
2024-01-11T09:02:27.582Z,100626.60
2024-01-11T09:06:18.173Z,100623.20
2024-01-11T09:10:07.731Z,100618.00
2024-01-11T09:13:57.182Z,100609.20
2024-01-11T09:17:47.301Z,100595.60
2024-01-11T09:21:37.842Z,100580.20
2024-01-11T09:25:27.976Z,100564.20
2024-01-11T09:29:17.514Z,100551.00
2024-01-11T09:33:08.393Z,100536.60
2024-01-11T09:36:57.966Z,100531.00
2024-01-11T09:40:47.463Z,100530.20
2024-01-11T09:44:36.911Z,100519.00
2024-01-11T09:48:26.237Z,100512.80
2024-01-11T09:52:16.569Z,100497.40
2024-01-11T09:56:07.099Z,100497.60
2024-01-11T09:59:56.748Z,100489.80
2024-01-11T10:03:46.386Z,100477.20
2024-01-11T10:07:37.055Z,100464.40
2024-01-11T10:11:30.146Z,100461.00
2024-01-11T10:15:24.023Z,100458.80
2024-01-11T10:19:05.232Z,100443.80
2024-01-11T10:22:55.563Z,100442.20
2024-01-11T10:26:45.606Z,100434.60
2024-01-11T10:30:28.191Z,100434.40
2024-01-11T10:34:18.320Z,100429.40
2024-01-11T10:37:48.271Z,100413.80
2024-01-11T10:41:17.930Z,100408.20
2024-01-11T10:45:10.304Z,100396.80
2024-01-11T10:48:59.837Z,100391.00
2024-01-11T10:52:48.640Z,100381.80
2024-01-11T10:56:39.304Z,100372.20
2024-01-11T11:00:30.069Z,100368.40
2024-01-11T11:04:23.413Z,100359.20
2024-01-11T11:08:13.601Z,100353.80
2024-01-11T11:12:06.450Z,100343.60
2024-01-11T11:15:45.900Z,100336.80
2024-01-11T11:19:36.026Z,100323.60
2024-01-11T11:23:25.594Z,100315.20
2024-01-11T11:27:19.557Z,100306.20
2024-01-11T11:31:09.181Z,100294.20
2024-01-11T11:34:54.081Z,100284.80
2024-01-11T11:38:44.610Z,100269.80
2024-01-11T11:42:27.729Z,100256.40
2024-01-11T11:46:17.236Z,100246.40
2024-01-11T11:50:06.736Z,100247.40
2024-01-11T11:53:58.296Z,100233.00
2024-01-11T11:57:48.791Z,100238.20
2024-01-11T12:01:38.631Z,100225.80
2024-01-11T12:05:28.581Z,100215.00
2024-01-11T12:09:19.241Z,100214.60
2024-01-11T12:13:08.795Z,100211.60
2024-01-11T12:16:58.755Z,100210.80
2024-01-11T12:20:48.893Z,100209.00
2024-01-11T12:24:39.561Z,100204.20
2024-01-11T12:28:30.243Z,100205.40
2024-01-11T12:32:19.877Z,100195.40
2024-01-11T12:36:09.542Z,100189.60
2024-01-11T12:39:59.752Z,100187.60
2024-01-11T12:43:49.190Z,100191.20
2024-01-11T12:47:31.593Z,100184.00
2024-01-11T12:51:23.340Z,100184.80
2024-01-11T12:55:08.554Z,100177.40
2024-01-11T12:59:11.447Z,100178.20
2024-01-11T13:03:00.953Z,100169.80
2024-01-11T13:06:50.743Z,100169.40
2024-01-11T13:10:40.600Z,100165.60
2024-01-11T13:14:19.705Z,100166.00
2024-01-11T13:18:08.878Z,100162.80
2024-01-11T13:21:50.799Z,100159.60
2024-01-11T13:25:40.235Z,100155.60
2024-01-11T13:29:29.922Z,100150.40
2024-01-11T13:33:19.676Z,100145.20
2024-01-11T13:37:10.012Z,100141.20
2024-01-11T13:40:52.558Z,100140.40
2024-01-11T13:45:44.448Z,100138.60
2024-01-11T13:48:51.259Z,100133.00
2024-01-11T13:52:41.454Z,100130.20
2024-01-11T13:56:24.443Z,100127.40
2024-01-11T14:00:13.875Z,100129.20
2024-01-11T14:04:04.218Z,100126.00
2024-01-11T14:07:54.046Z,100117.60
2024-01-11T14:11:43.921Z,100114.60
2024-01-11T14:15:34.207Z,100111.40
2024-01-11T14:19:17.294Z,100105.40
2024-01-11T14:23:12.926Z,100105.20
2024-01-11T14:27:02.880Z,100093.60
2024-01-11T14:30:52.814Z,100089.00
2024-01-11T14:38:53.876Z,100071.60
2024-01-11T14:42:44.207Z,100078.20
2024-01-11T14:46:16.755Z,100070.80
2024-01-11T14:50:02.106Z,100076.00
2024-01-11T14:53:52.729Z,100071.60
2024-01-11T14:57:42.351Z,100066.80
2024-01-11T15:01:32.631Z,100064.60
2024-01-11T15:05:22.229Z,100065.00
2024-01-11T15:09:12.620Z,100057.80
2024-01-11T15:13:02.089Z,100061.20
2024-01-11T15:16:50.714Z,100060.20
2024-01-11T15:20:42.573Z,100060.80
2024-01-11T15:24:25.803Z,100055.80
2024-01-11T15:28:15.331Z,100051.40
2024-01-11T15:32:05.665Z,100043.00
2024-01-11T15:35:57.706Z,100041.00
2024-01-11T15:39:47.729Z,100037.40
2024-01-11T15:43:39.450Z,100033.60
2024-01-11T15:47:29.135Z,100040.60
2024-01-11T15:51:18.700Z,100046.00
2024-01-11T15:55:08.166Z,100040.00
2024-01-11T15:58:57.779Z,100039.60
2024-01-11T16:02:47.273Z,100035.00
2024-01-11T16:06:37.795Z,100032.40
2024-01-11T16:10:27.603Z,100025.80
2024-01-11T16:14:16.969Z,100023.40
2024-01-11T16:18:07.024Z,100022.60
2024-01-11T16:21:57.419Z,100020.40
2024-01-11T16:25:46.980Z,100013.20
2024-01-11T16:29:37.447Z,100007.40
2024-01-11T16:33:28.249Z,100000.80
2024-01-11T16:37:16.574Z,99992.00
2024-01-11T16:41:08.422Z,99984.00
2024-01-11T16:44:58.570Z,99983.00
2024-01-11T16:48:48.988Z,99977.00
2024-01-11T16:52:45.007Z,99972.00
2024-01-11T16:56:34.500Z,99962.00
2024-01-11T17:00:24.045Z,99962.40
2024-01-11T17:04:15.230Z,99968.60
2024-01-11T17:08:04.898Z,99971.80
2024-01-11T17:11:54.563Z,99967.60
2024-01-11T17:15:44.027Z,99962.20
2024-01-11T17:19:35.566Z,99954.20
2024-01-11T17:23:18.718Z,99949.60
2024-01-11T17:27:18.077Z,99953.00
2024-01-11T17:31:10.997Z,99951.80
2024-01-11T17:35:01.348Z,99945.80
2024-01-11T17:38:49.489Z,99939.60
2024-01-11T17:42:42.412Z,99939.20
2024-01-11T17:46:26.201Z,99940.40
2024-01-11T17:50:09.359Z,99933.40
2024-01-11T17:53:59.024Z,99933.00
2024-01-11T17:57:48.828Z,99931.60
2024-01-11T18:01:38.278Z,99927.60
2024-01-11T18:05:28.647Z,99926.80
2024-01-11T18:09:13.684Z,99914.80
2024-01-11T18:13:04.052Z,99916.00
2024-01-11T18:16:54.119Z,99917.80
2024-01-11T18:20:44.095Z,99911.40
2024-01-11T18:24:35.258Z,99903.20
2024-01-11T18:28:26.041Z,99904.60
2024-01-11T18:32:16.050Z,99892.20
2024-01-11T18:36:01.235Z,99885.00
2024-01-11T18:43:58.526Z,99877.80
2024-01-11T18:47:47.920Z,99882.40
2024-01-11T18:51:38.364Z,99880.40
2024-01-11T18:55:19.527Z,99871.80
2024-01-11T18:59:09.807Z,99875.80
2024-01-11T19:02:51.940Z,99862.80
2024-01-11T19:06:42.574Z,99859.00
2024-01-11T19:10:31.999Z,99869.80
2024-01-11T19:14:21.477Z,99872.60
2024-01-11T19:18:11.772Z,99868.20
2024-01-11T19:22:01.296Z,99871.20
2024-01-11T19:25:43.521Z,99872.80
2024-01-11T19:29:33.659Z,99867.00
2024-01-11T19:33:23.317Z,99866.00
2024-01-11T19:37:17.165Z,99857.60
2024-01-11T19:41:08.220Z,99858.00
2024-01-11T19:44:57.768Z,99862.00
2024-01-11T19:48:47.467Z,99862.20
2024-01-11T19:52:37.014Z,99853.00
2024-01-11T19:56:26.448Z,99846.20
2024-01-11T20:00:17.112Z,99846.40
2024-01-11T20:04:06.152Z,99843.40
2024-01-11T20:07:55.623Z,99840.20
2024-01-11T20:11:44.865Z,99829.40
2024-01-11T20:15:35.064Z,99824.60
2024-01-11T20:19:24.513Z,99825.60
2024-01-11T20:23:07.382Z,99826.40
2024-01-11T20:26:50.638Z,99838.60
2024-01-11T20:30:33.230Z,99846.20
2024-01-11T20:34:22.717Z,99837.20
2024-01-11T20:38:12.723Z,99827.80
2024-01-11T20:42:04.796Z,99825.20
2024-01-11T20:45:55.029Z,99832.20
2024-01-11T20:49:46.234Z,99823.60
2024-01-11T20:53:35.711Z,99824.60
2024-01-11T20:57:25.289Z,99823.20
2024-01-11T21:01:15.595Z,99822.80
2024-01-11T21:05:05.047Z,99820.00
2024-01-11T21:08:55.697Z,99807.20
2024-01-11T21:12:45.843Z,99805.60
2024-01-11T21:16:36.254Z,99810.80
2024-01-11T21:20:25.654Z,99800.80
2024-01-11T21:24:07.595Z,99803.60
2024-01-11T21:27:57.574Z,99793.80
2024-01-11T21:31:40.107Z,99796.60
2024-01-11T21:35:30.547Z,99801.20
2024-01-11T21:39:20.266Z,99807.60
2024-01-11T21:43:09.736Z,99799.20
2024-01-11T21:47:00.100Z,99796.60
2024-01-11T21:50:50.877Z,99799.00
2024-01-11T21:54:42.532Z,99807.80
2024-01-11T21:58:32.094Z,99802.80
2024-01-11T22:02:21.572Z,99805.20
2024-01-11T22:06:03.910Z,99808.20
2024-01-11T22:09:54.264Z,99805.20
2024-01-11T22:13:44.284Z,99807.00
2024-01-11T22:17:33.943Z,99799.60
2024-01-11T22:21:24.457Z,99798.20
2024-01-11T22:25:14.770Z,99802.40
2024-01-11T22:29:04.237Z,99809.80
2024-01-11T22:32:54.576Z,99806.20
2024-01-11T22:36:33.907Z,99808.40
2024-01-11T22:40:24.188Z,99799.20
2024-01-11T22:44:16.467Z,99794.20
2024-01-11T22:48:06.410Z,99801.40
2024-01-11T22:51:57.326Z,99798.00
2024-01-11T22:55:46.808Z,99797.60
2024-01-11T22:59:36.832Z,99803.20
2024-01-11T23:03:26.919Z,99808.20
2024-01-11T23:07:25.476Z,99806.60
2024-01-11T23:11:14.880Z,99802.00
2024-01-11T23:15:04.543Z,99800.20
2024-01-11T23:18:54.539Z,99791.40
2024-01-11T23:22:44.662Z,99792.40
2024-01-11T23:26:34.900Z,99800.20
2024-01-11T23:30:24.451Z,99801.20
2024-01-11T23:34:06.789Z,99803.00
2024-01-11T23:37:56.564Z,99797.40
2024-01-11T23:41:39.312Z,99796.20
2024-01-11T23:45:19.878Z,99785.40
2024-01-11T23:49:03.550Z,99787.60
2024-01-11T23:52:53.872Z,99789.60
2024-01-11T23:56:44.978Z,99790.20
